createdAt,value
2022-11-05T00:00:38.300Z,99.37
2022-11-05T00:03:26.949Z,100.00
2022-11-05T00:06:12.631Z,100.00
2022-11-05T00:09:01.300Z,100.00
2022-11-05T00:11:43.103Z,100.00
2022-11-05T00:14:30.553Z,100.00
2022-11-05T00:16:58.361Z,100.00
2022-11-05T00:19:28.315Z,100.00
2022-11-05T00:22:13.695Z,100.00
2022-11-05T00:25:02.182Z,100.00
2022-11-05T00:27:30.014Z,100.00
2022-11-05T00:29:59.971Z,100.00
2022-11-05T00:32:27.746Z,99.85
2022-11-05T00:34:55.530Z,99.67
2022-11-05T00:37:25.432Z,99.38
2022-11-05T00:39:56.454Z,99.56
2022-11-05T00:42:41.645Z,99.31
2022-11-05T00:45:11.755Z,99.47
2022-11-05T00:47:58.488Z,99.05
2022-11-05T00:50:29.282Z,98.69
2022-11-05T00:52:59.681Z,98.30
2022-11-05T00:55:38.263Z,97.94
2022-11-05T00:58:08.124Z,97.80
2022-11-05T01:00:40.601Z,98.20
2022-11-05T01:03:10.469Z,98.98
2022-11-05T01:05:43.897Z,99.61
2022-11-05T01:08:12.214Z,100.00
2022-11-05T01:10:47.606Z,100.00
2022-11-05T01:13:18.495Z,100.00
2022-11-05T01:15:47.173Z,100.00
2022-11-05T01:18:17.328Z,100.00
2022-11-05T01:20:45.455Z,100.00
2022-11-05T01:23:15.461Z,100.00
2022-11-05T01:25:46.630Z,100.00
2022-11-05T01:28:14.446Z,100.00
2022-11-05T01:30:42.258Z,100.00
2022-11-05T01:33:12.441Z,100.00
2022-11-05T01:35:40.752Z,100.00
2022-11-05T01:38:08.606Z,100.00
2022-11-05T01:40:38.523Z,100.00
2022-11-05T01:43:15.379Z,100.00
2022-11-05T01:45:47.756Z,100.00
2022-11-05T01:48:19.792Z,100.00
2022-11-05T01:50:54.732Z,100.00
2022-11-05T01:53:28.034Z,100.00
2022-11-05T01:56:04.433Z,100.00
2022-11-05T01:58:43.676Z,100.00
2022-11-05T02:01:13.753Z,100.00
2022-11-05T02:03:42.763Z,100.00
2022-11-05T02:06:11.929Z,100.00
2022-11-05T02:08:52.799Z,100.00
2022-11-05T02:11:21.311Z,100.00
2022-11-05T02:13:53.023Z,100.00
2022-11-05T02:16:32.904Z,100.00
2022-11-05T02:19:14.535Z,100.00
2022-11-05T02:22:07.445Z,100.00
2022-11-05T02:25:12.775Z,100.00
2022-11-05T02:28:21.013Z,100.00
2022-11-05T02:30:56.145Z,100.00
2022-11-05T02:33:32.353Z,100.00
2022-11-05T02:36:26.908Z,100.00
2022-11-05T02:39:06.714Z,100.00
2022-11-05T02:41:48.650Z,100.00
2022-11-05T02:44:23.919Z,100.00
2022-11-05T02:47:00.330Z,100.00
2022-11-05T02:49:40.228Z,100.00
2022-11-05T02:52:16.592Z,100.00
2022-11-05T02:54:49.439Z,100.00
2022-11-05T02:57:20.414Z,100.00
2022-11-05T02:59:48.204Z,100.00
2022-11-05T03:02:17.705Z,100.00
2022-11-05T03:04:47.730Z,100.00
2022-11-05T03:07:27.408Z,100.00
2022-11-05T03:10:15.218Z,100.00
2022-11-05T03:12:58.104Z,100.00
2022-11-05T03:15:43.379Z,100.00
2022-11-05T03:18:19.572Z,100.00
2022-11-05T03:20:52.657Z,100.00
2022-11-05T03:23:28.856Z,100.00
2022-11-05T03:26:08.613Z,100.00
2022-11-05T03:28:39.461Z,100.00
2022-11-05T03:31:11.344Z,100.00
2022-11-05T03:33:42.591Z,100.00
2022-11-05T03:36:16.301Z,100.00
2022-11-05T03:38:49.083Z,100.00
2022-11-05T03:41:21.507Z,100.00
2022-11-05T03:43:53.067Z,100.00
2022-11-05T03:46:32.562Z,100.00
2022-11-05T03:49:05.438Z,100.00
2022-11-05T03:51:42.244Z,100.00
2022-11-05T03:54:11.574Z,100.00
2022-11-05T03:56:47.292Z,100.00
2022-11-05T03:59:15.453Z,100.00
2022-11-05T04:01:45.719Z,100.00
2022-11-05T04:04:18.096Z,99.42
2022-11-05T04:07:03.514Z,99.77
2022-11-05T04:09:50.725Z,99.09
2022-11-05T04:12:36.144Z,99.70
2022-11-05T04:15:06.780Z,99.31
2022-11-05T04:17:33.675Z,100.00
2022-11-05T04:20:20.132Z,100.00
2022-11-05T04:23:07.586Z,99.37
2022-11-05T04:25:35.707Z,99.27
2022-11-05T04:28:07.684Z,98.65
2022-11-05T04:30:34.475Z,98.24
2022-11-05T04:33:06.004Z,99.13
2022-11-05T04:35:39.027Z,100.00
2022-11-05T04:38:09.489Z,99.75
2022-11-05T04:40:39.294Z,100.00
2022-11-05T04:43:13.598Z,100.00
2022-11-05T04:45:45.388Z,100.00
2022-11-05T04:48:13.573Z,100.00
2022-11-05T04:50:42.990Z,100.00
2022-11-05T04:53:13.315Z,100.00
2022-11-05T04:55:41.352Z,100.00
2022-11-05T04:58:10.123Z,100.00
2022-11-05T05:00:40.174Z,99.70
2022-11-05T05:03:08.192Z,99.65
2022-11-05T05:05:36.436Z,99.74
2022-11-05T05:08:07.799Z,98.68
2022-11-05T05:10:35.586Z,97.57
2022-11-05T05:13:03.390Z,97.25
2022-11-05T05:15:33.970Z,98.49
2022-11-05T05:18:03.885Z,98.63
2022-11-05T05:20:54.342Z,99.42
2022-11-05T05:23:25.753Z,99.57
2022-11-05T05:25:53.968Z,100.00
2022-11-05T05:28:23.681Z,100.00
2022-11-05T05:30:58.522Z,99.86
2022-11-05T05:33:26.684Z,99.42
2022-11-05T05:36:08.432Z,99.90
2022-11-05T05:38:40.192Z,99.70
2022-11-05T05:41:10.098Z,99.81
2022-11-05T05:43:37.874Z,100.00
2022-11-05T05:46:06.509Z,100.00
2022-11-05T05:48:36.456Z,100.00
2022-11-05T05:51:05.365Z,100.00
2022-11-05T05:53:33.821Z,100.00
2022-11-05T05:56:06.174Z,100.00
2022-11-05T05:58:35.419Z,100.00
2022-11-05T06:01:03.873Z,100.00
2022-11-05T06:03:36.110Z,100.00
2022-11-05T06:06:05.200Z,100.00
2022-11-05T06:08:33.519Z,100.00
2022-11-05T06:11:05.599Z,100.00
2022-11-05T06:13:33.843Z,100.00
2022-11-05T06:16:03.240Z,100.00
2022-11-05T06:18:34.504Z,100.00
2022-11-05T06:21:03.004Z,98.38
2022-11-05T06:23:31.836Z,98.40
2022-11-05T06:26:04.594Z,98.46
2022-11-05T06:28:33.540Z,98.52
2022-11-05T06:31:01.844Z,97.41
2022-11-05T06:33:31.840Z,96.80
2022-11-05T06:36:00.456Z,96.46
2022-11-05T06:38:29.296Z,95.59
2022-11-05T06:40:59.702Z,96.85
2022-11-05T06:43:29.589Z,96.43
2022-11-05T06:45:58.377Z,95.91
2022-11-05T06:48:28.893Z,94.98
2022-11-05T06:50:56.540Z,95.38
2022-11-05T06:53:24.300Z,96.63
2022-11-05T06:55:54.255Z,94.18
2022-11-05T06:58:22.025Z,95.93
2022-11-05T07:00:51.261Z,93.91
2022-11-05T07:03:21.232Z,93.34
2022-11-05T07:05:52.396Z,94.23
2022-11-05T07:08:20.215Z,93.67
2022-11-05T07:10:50.078Z,93.57
2022-11-05T07:13:17.918Z,93.36
2022-11-05T07:15:45.780Z,93.98
2022-11-05T07:18:16.742Z,94.35
2022-11-05T07:20:44.736Z,94.30
2022-11-05T07:23:15.257Z,95.27
2022-11-05T07:25:54.279Z,94.70
2022-11-05T07:28:22.100Z,94.60
2022-11-05T07:30:52.061Z,95.28
2022-11-05T07:33:21.223Z,95.80
2022-11-05T07:35:48.993Z,95.35
2022-11-05T07:38:19.368Z,94.79
2022-11-05T07:40:47.161Z,95.58
2022-11-05T07:43:15.229Z,95.91
2022-11-05T07:45:46.896Z,94.75
2022-11-05T07:48:14.783Z,94.03
2022-11-05T07:50:44.091Z,93.42
2022-11-05T07:53:15.678Z,92.42
2022-11-05T07:55:45.976Z,92.10
2022-11-05T07:58:16.416Z,91.30
2022-11-05T08:00:44.014Z,91.06
2022-11-05T08:03:15.026Z,90.31
2022-11-05T08:05:48.424Z,89.04
2022-11-05T08:08:19.789Z,89.46
2022-11-05T08:10:48.074Z,88.62
2022-11-05T08:13:16.350Z,89.32
2022-11-05T08:15:44.832Z,89.09
2022-11-05T08:18:16.138Z,89.50
2022-11-05T08:20:46.511Z,90.04
2022-11-05T08:23:15.369Z,90.44
2022-11-05T08:25:43.397Z,91.17
2022-11-05T08:28:12.998Z,91.47
2022-11-05T08:30:41.467Z,91.40
2022-11-05T08:33:12.175Z,91.27
2022-11-05T08:35:40.533Z,91.84
2022-11-05T08:38:14.674Z,92.37
2022-11-05T08:40:43.908Z,91.95
2022-11-05T08:43:13.950Z,92.42
2022-11-05T08:45:44.156Z,92.71
2022-11-05T08:48:14.934Z,93.19
2022-11-05T08:50:43.497Z,92.59
2022-11-05T08:53:13.471Z,93.18
2022-11-05T08:55:41.962Z,93.90
2022-11-05T08:58:17.005Z,92.96
2022-11-05T09:00:46.755Z,93.46
2022-11-05T09:03:15.973Z,92.67
2022-11-05T09:05:44.323Z,93.04
2022-11-05T09:08:15.206Z,93.67
2022-11-05T09:10:44.118Z,93.72
2022-11-05T09:13:18.411Z,94.64
2022-11-05T09:15:47.985Z,94.76
2022-11-05T09:18:18.980Z,94.61
2022-11-05T09:20:47.402Z,94.13
2022-11-05T09:23:16.986Z,93.85
2022-11-05T09:25:45.534Z,93.92
2022-11-05T09:28:17.154Z,94.34
2022-11-05T09:30:48.901Z,94.88
2022-11-05T09:33:26.368Z,95.79
2022-11-05T09:35:54.620Z,96.48
2022-11-05T09:38:23.767Z,96.47
2022-11-05T09:40:58.485Z,96.24
2022-11-05T09:43:31.886Z,97.13
2022-11-05T09:46:05.018Z,97.63
2022-11-05T09:48:35.268Z,97.66
2022-11-05T09:51:06.947Z,98.50
2022-11-05T09:53:40.603Z,99.28
2022-11-05T09:56:24.383Z,99.21
2022-11-05T09:58:57.229Z,100.00
2022-11-05T10:01:30.238Z,100.00
2022-11-05T10:04:00.734Z,100.00
2022-11-05T10:06:29.074Z,100.00
2022-11-05T10:09:06.606Z,100.00
2022-11-05T10:11:43.737Z,100.00
2022-11-05T10:14:18.111Z,100.00
2022-11-05T10:16:54.173Z,100.00
2022-11-05T10:19:25.273Z,100.00
2022-11-05T10:22:12.239Z,100.00
2022-11-05T10:24:44.269Z,100.00
2022-11-05T10:27:17.552Z,100.00
2022-11-05T10:29:46.516Z,100.00
2022-11-05T10:32:21.288Z,100.00
2022-11-05T10:34:49.444Z,100.00
2022-11-05T10:37:17.865Z,100.00
2022-11-05T10:39:47.089Z,100.00
2022-11-05T10:42:35.112Z,100.00
2022-11-05T10:45:10.989Z,100.00
2022-11-05T10:47:59.236Z,100.00
2022-11-05T10:50:29.467Z,100.00
2022-11-05T10:53:02.354Z,100.00
2022-11-05T10:55:33.973Z,100.00
2022-11-05T10:58:27.515Z,100.00
2022-11-05T11:01:05.600Z,100.00
2022-11-05T11:03:36.880Z,100.00
2022-11-05T11:06:07.778Z,100.00
2022-11-05T11:08:37.663Z,100.00
2022-11-05T11:11:11.552Z,100.00
2022-11-05T11:14:03.524Z,100.00
2022-11-05T11:16:37.526Z,100.00
2022-11-05T11:19:24.336Z,100.00
2022-11-05T11:22:13.761Z,100.00
2022-11-05T11:24:45.280Z,100.00
2022-11-05T11:27:17.575Z,100.00
2022-11-05T11:29:50.079Z,100.00
2022-11-05T11:32:20.876Z,100.00
2022-11-05T11:34:52.821Z,100.00
2022-11-05T11:37:24.883Z,100.00
2022-11-05T11:39:56.093Z,100.00
2022-11-05T11:42:31.411Z,100.00
2022-11-05T11:45:06.498Z,100.00
2022-11-05T11:47:34.817Z,100.00
2022-11-05T11:50:05.576Z,100.00
2022-11-05T11:52:36.358Z,100.00
2022-11-05T11:55:20.953Z,100.00
2022-11-05T11:57:52.388Z,100.00
2022-11-05T12:00:21.995Z,100.00
2022-11-05T12:03:18.171Z,100.00
2022-11-05T12:05:52.697Z,100.00
2022-11-05T12:08:49.403Z,100.00
2022-11-05T12:11:27.996Z,100.00
2022-11-05T12:14:02.371Z,100.00
2022-11-05T12:16:45.660Z,100.00
2022-11-05T12:19:32.229Z,100.00
2022-11-05T12:22:10.558Z,100.00
2022-11-05T12:25:00.094Z,100.00
2022-11-05T12:27:41.247Z,100.00
2022-11-05T12:30:14.914Z,100.00
2022-11-05T12:32:56.842Z,100.00
2022-11-05T12:35:47.077Z,100.00
2022-11-05T12:38:29.903Z,100.00
2022-11-05T12:41:09.371Z,100.00
2022-11-05T12:43:50.008Z,100.00
2022-11-05T12:46:27.777Z,100.00
2022-11-05T12:49:21.301Z,100.00
2022-11-05T12:52:10.198Z,100.00
2022-11-05T12:54:51.398Z,100.00
2022-11-05T12:57:21.044Z,100.00
2022-11-05T12:59:56.128Z,100.00
2022-11-05T13:02:34.291Z,100.00
2022-11-05T13:05:06.926Z,100.00
2022-11-05T13:07:38.541Z,100.00
2022-11-05T13:10:16.343Z,100.00
2022-11-05T13:12:45.704Z,100.00
2022-11-05T13:15:25.126Z,100.00
2022-11-05T13:17:59.993Z,100.00
2022-11-05T13:20:31.338Z,100.00
2022-11-05T13:23:03.952Z,100.00
2022-11-05T13:25:38.882Z,100.00
2022-11-05T13:28:13.609Z,100.00
2022-11-05T13:30:45.097Z,100.00
2022-11-05T13:33:16.703Z,100.00
2022-11-05T13:35:48.186Z,100.00
2022-11-05T13:38:40.802Z,100.00
2022-11-05T13:41:22.643Z,100.00
2022-11-05T13:44:11.612Z,100.00
2022-11-05T13:46:57.171Z,100.00
2022-11-05T13:49:47.436Z,100.00
2022-11-05T13:52:55.871Z,100.00
2022-11-05T13:55:48.571Z,100.00
2022-11-05T13:58:49.508Z,100.00
2022-11-05T14:01:29.834Z,100.00
2022-11-05T14:03:58.096Z,100.00
2022-11-05T14:06:32.201Z,100.00
2022-11-05T14:09:03.488Z,100.00
2022-11-05T14:11:36.218Z,100.00
2022-11-05T14:14:08.271Z,100.00
2022-11-05T14:16:51.769Z,100.00
2022-11-05T14:19:36.156Z,100.00
2022-11-05T14:22:39.269Z,100.00
2022-11-05T14:25:40.519Z,100.00
2022-11-05T14:28:29.812Z,100.00
2022-11-05T14:30:57.691Z,100.00
2022-11-05T14:33:34.020Z,100.00
2022-11-05T14:36:31.256Z,100.00
2022-11-05T14:39:19.467Z,100.00
2022-11-05T14:41:59.923Z,100.00
2022-11-05T14:44:29.334Z,100.00
2022-11-05T14:47:00.246Z,100.00
2022-11-05T14:49:34.379Z,100.00
2022-11-05T14:52:08.131Z,100.00
2022-11-05T14:54:48.570Z,100.00
2022-11-05T14:57:37.442Z,100.00
2022-11-05T15:00:09.477Z,100.00
2022-11-05T15:02:39.379Z,100.00
2022-11-05T15:05:39.369Z,100.00
2022-11-05T15:08:33.856Z,100.00
2022-11-05T15:11:15.801Z,100.00
2022-11-05T15:13:52.523Z,100.00
2022-11-05T15:16:26.545Z,100.00
2022-11-05T15:18:56.113Z,100.00
2022-11-05T15:21:26.909Z,100.00
2022-11-05T15:23:57.534Z,100.00
2022-11-05T15:26:32.564Z,100.00
2022-11-05T15:29:02.053Z,100.00
2022-11-05T15:31:35.244Z,100.00
2022-11-05T15:34:21.467Z,100.00
2022-11-05T15:36:51.883Z,100.00
2022-11-05T15:39:29.794Z,100.00
2022-11-05T15:41:58.810Z,100.00
2022-11-05T15:44:28.849Z,100.00
2022-11-05T15:47:16.202Z,100.00
2022-11-05T15:49:45.978Z,100.00
2022-11-05T15:52:15.605Z,100.00
2022-11-05T15:54:44.623Z,100.00
2022-11-05T15:57:26.845Z,100.00
2022-11-05T15:59:58.794Z,100.00
2022-11-05T16:02:31.987Z,100.00
2022-11-05T16:05:01.366Z,100.00
2022-11-05T16:07:31.350Z,100.00
2022-11-05T16:10:01.786Z,100.00
2022-11-05T16:12:33.740Z,100.00
2022-11-05T16:15:18.290Z,100.00
2022-11-05T16:17:52.423Z,100.00
2022-11-05T16:20:23.387Z,100.00
2022-11-05T16:22:53.474Z,100.00
2022-11-05T16:25:23.788Z,100.00
2022-11-05T16:27:55.799Z,100.00
2022-11-05T16:30:24.188Z,100.00
2022-11-05T16:32:54.019Z,100.00
2022-11-05T16:35:25.359Z,100.00
2022-11-05T16:37:53.715Z,100.00
2022-11-05T16:40:23.475Z,100.00
2022-11-05T16:42:53.221Z,100.00
2022-11-05T16:45:24.051Z,100.00
2022-11-05T16:47:55.474Z,100.00
2022-11-05T16:50:26.991Z,100.00
2022-11-05T16:52:54.923Z,100.00
2022-11-05T16:55:22.993Z,100.00
2022-11-05T16:57:56.553Z,100.00
2022-11-05T17:00:26.312Z,100.00
2022-11-05T17:02:55.863Z,100.00
2022-11-05T17:05:28.457Z,100.00
2022-11-05T17:07:57.187Z,100.00
2022-11-05T17:10:26.753Z,100.00
2022-11-05T17:12:57.098Z,100.00
2022-11-05T17:15:27.762Z,100.00
2022-11-05T17:18:00.718Z,100.00
2022-11-05T17:20:40.457Z,100.00
2022-11-05T17:23:10.192Z,100.00
2022-11-05T17:25:38.873Z,100.00
2022-11-05T17:28:09.908Z,100.00
2022-11-05T17:30:41.233Z,100.00
2022-11-05T17:33:12.080Z,100.00
2022-11-05T17:35:40.845Z,100.00
2022-11-05T17:38:08.788Z,100.00
2022-11-05T17:40:37.481Z,100.00
2022-11-05T17:43:06.103Z,100.00
2022-11-05T17:45:34.551Z,100.00
2022-11-05T17:48:03.356Z,100.00
2022-11-05T17:50:32.868Z,100.00
2022-11-05T17:53:00.775Z,100.00
2022-11-05T17:55:28.651Z,100.00
2022-11-05T17:57:58.865Z,100.00
2022-11-05T18:00:27.184Z,100.00
2022-11-05T18:02:55.603Z,100.00
2022-11-05T18:05:27.943Z,100.00
2022-11-05T18:07:57.857Z,100.00
2022-11-05T18:10:28.115Z,100.00
2022-11-05T18:12:56.058Z,100.00
2022-11-05T18:15:23.944Z,100.00
2022-11-05T18:17:53.984Z,100.00
2022-11-05T18:20:22.244Z,100.00
2022-11-05T18:22:51.592Z,100.00
2022-11-05T18:25:22.890Z,100.00
2022-11-05T18:27:50.702Z,100.00
2022-11-05T18:30:21.091Z,100.00
2022-11-05T18:32:51.135Z,100.00
2022-11-05T18:35:19.369Z,100.00
2022-11-05T18:37:47.287Z,100.00
2022-11-05T18:40:15.241Z,100.00
2022-11-05T18:42:44.430Z,100.00
2022-11-05T18:45:13.084Z,100.00
2022-11-05T18:47:41.172Z,100.00
2022-11-05T18:50:10.509Z,100.00
2022-11-05T18:52:38.371Z,100.00
2022-11-05T18:55:07.409Z,100.00
2022-11-05T18:57:35.555Z,100.00
2022-11-05T19:00:05.863Z,100.00
2022-11-05T19:02:34.273Z,100.00
2022-11-05T19:07:50.238Z,100.00
2022-11-05T19:10:18.239Z,100.00
2022-11-05T19:12:46.005Z,100.00
2022-11-05T19:15:17.508Z,100.00
2022-11-05T19:17:45.867Z,100.00
2022-11-05T19:20:13.755Z,100.00
2022-11-05T19:22:43.834Z,100.00
2022-11-05T19:25:11.798Z,100.00
2022-11-05T19:27:39.737Z,100.00
2022-11-05T19:30:10.338Z,100.00
2022-11-05T19:32:39.680Z,100.00
2022-11-05T19:35:07.941Z,100.00
2022-11-05T19:37:35.970Z,100.00
2022-11-05T19:40:03.893Z,100.00
2022-11-05T19:42:31.745Z,100.00
2022-11-05T19:45:16.638Z,100.00
2022-11-05T19:47:48.857Z,100.00
2022-11-05T19:50:16.820Z,100.00
2022-11-05T19:52:44.609Z,100.00
2022-11-05T19:55:12.578Z,100.00
2022-11-05T19:57:42.637Z,100.00
2022-11-05T20:00:11.563Z,100.00
2022-11-05T20:02:39.859Z,100.00
2022-11-05T20:05:09.773Z,100.00
2022-11-05T20:07:37.625Z,100.00
2022-11-05T20:10:06.619Z,100.00
2022-11-05T20:12:36.717Z,100.00
2022-11-05T20:15:07.087Z,100.00
2022-11-05T20:17:34.909Z,100.00
2022-11-05T20:20:05.784Z,100.00
2022-11-05T20:22:38.414Z,100.00
2022-11-05T20:25:07.241Z,100.00
2022-11-05T20:27:35.245Z,100.00
2022-11-05T20:30:08.475Z,100.00
2022-11-05T20:32:36.460Z,100.00
2022-11-05T20:35:06.131Z,100.00
2022-11-05T20:37:36.574Z,100.00
2022-11-05T20:40:04.601Z,100.00
2022-11-05T20:42:32.392Z,100.00
2022-11-05T20:45:02.487Z,100.00
2022-11-05T20:47:30.264Z,100.00
2022-11-05T20:49:58.472Z,100.00
2022-11-05T20:52:29.544Z,100.00
2022-11-05T20:54:58.898Z,100.00
2022-11-05T20:57:26.997Z,100.00
2022-11-05T20:59:56.964Z,100.00
2022-11-05T21:02:24.860Z,100.00
2022-11-05T21:04:52.772Z,100.00
2022-11-05T21:07:20.748Z,100.00
2022-11-05T21:09:48.487Z,100.00
2022-11-05T21:12:18.591Z,100.00
2022-11-05T21:14:49.623Z,100.00
2022-11-05T21:17:17.964Z,100.00
2022-11-05T21:19:45.724Z,100.00
2022-11-05T21:22:16.194Z,100.00
2022-11-05T21:24:44.327Z,100.00
2022-11-05T21:27:12.135Z,100.00
2022-11-05T21:29:43.189Z,100.00
2022-11-05T21:32:11.714Z,100.00
2022-11-05T21:34:39.729Z,100.00
2022-11-05T21:37:09.703Z,100.00
2022-11-05T21:39:37.506Z,100.00
2022-11-05T21:42:05.421Z,100.00
2022-11-05T21:44:35.548Z,100.00
2022-11-05T21:47:04.967Z,100.00
2022-11-05T21:49:35.173Z,100.00
2022-11-05T21:52:23.079Z,100.00
2022-11-05T21:55:08.352Z,100.00
2022-11-05T21:57:56.019Z,100.00
2022-11-05T22:00:24.064Z,100.00
2022-11-05T22:02:55.157Z,100.00
2022-11-05T22:05:23.118Z,100.00
2022-11-05T22:07:50.968Z,100.00
2022-11-05T22:10:18.908Z,100.00
2022-11-05T22:12:47.022Z,100.00
2022-11-05T22:15:15.167Z,100.00
2022-11-05T22:17:46.935Z,100.00
2022-11-05T22:20:17.766Z,100.00
2022-11-05T22:22:47.784Z,100.00
2022-11-05T22:25:16.077Z,100.00
2022-11-05T22:27:44.269Z,100.00
2022-11-05T22:30:15.493Z,100.00
2022-11-05T22:32:43.346Z,100.00
2022-11-05T22:35:11.609Z,100.00
2022-11-05T22:37:44.831Z,100.00
2022-11-05T22:40:12.933Z,100.00
2022-11-05T22:42:40.797Z,100.00
2022-11-05T22:45:11.186Z,100.00
2022-11-05T22:47:38.995Z,100.00
2022-11-05T22:50:07.555Z,100.00
2022-11-05T22:52:37.538Z,100.00
2022-11-05T22:55:07.438Z,100.00
2022-11-05T22:57:35.184Z,100.00
2022-11-05T23:00:08.081Z,100.00
2022-11-05T23:02:36.023Z,100.00
2022-11-05T23:05:03.840Z,100.00
2022-11-05T23:07:51.376Z,100.00
2022-11-05T23:10:38.499Z,100.00
2022-11-05T23:13:08.750Z,100.00
2022-11-05T23:15:54.146Z,100.00
2022-11-05T23:18:41.589Z,100.00
2022-11-05T23:21:27.032Z,100.00
2022-11-05T23:24:05.830Z,100.00
2022-11-05T23:26:51.085Z,100.00
2022-11-05T23:29:22.854Z,100.00
2022-11-05T23:32:10.434Z,100.00
2022-11-05T23:34:40.618Z,100.00
2022-11-05T23:37:26.216Z,100.00
2022-11-05T23:39:56.176Z,100.00
2022-11-05T23:42:42.833Z,100.00
2022-11-05T23:45:30.623Z,100.00
2022-11-05T23:48:16.389Z,100.00
2022-11-05T23:50:49.362Z,100.00
2022-11-05T23:53:17.226Z,100.00
2022-11-05T23:55:45.288Z,100.00
2022-11-05T23:58:17.016Z,100.00
